sensor_id;sensor_type;location;lat;lon;timestamp;pressure;altitude;pressure_sealevel;temperature;humidity
74921;BME280;63483;47.384;8.860;2022-09-30T00:00:15;93605.50;;;7.43;55.85
74921;BME280;63483;47.384;8.860;2022-09-30T00:02:41;93604.53;;;7.44;55.92
74921;BME280;63483;47.384;8.860;2022-09-30T00:05:07;93614.78;;;7.46;55.90
74921;BME280;63483;47.384;8.860;2022-09-30T00:07:32;93620.78;;;7.46;55.83
74921;BME280;63483;47.384;8.860;2022-09-30T00:09:57;93618.81;;;7.48;55.51
74921;BME280;63483;47.384;8.860;2022-09-30T00:12:23;93626.63;;;7.48;55.53
74921;BME280;63483;47.384;8.860;2022-09-30T00:14:48;93617.19;;;7.47;55.40
74921;BME280;63483;47.384;8.860;2022-09-30T00:17:13;93620.44;;;7.49;55.72
74921;BME280;63483;47.384;8.860;2022-09-30T00:19:39;93616.81;;;7.50;55.58
74921;BME280;63483;47.384;8.860;2022-09-30T00:22:04;93628.84;;;7.51;55.46
74921;BME280;63483;47.384;8.860;2022-09-30T00:24:30;93624.63;;;7.50;55.45
74921;BME280;63483;47.384;8.860;2022-09-30T00:26:55;93632.44;;;7.50;55.23
74921;BME280;63483;47.384;8.860;2022-09-30T00:29:20;93624.63;;;7.50;55.43
74921;BME280;63483;47.384;8.860;2022-09-30T00:31:46;93627.59;;;7.47;55.33
74921;BME280;63483;47.384;8.860;2022-09-30T00:34:11;93619.97;;;7.46;55.76
74921;BME280;63483;47.384;8.860;2022-09-30T00:39:04;93640.03;;;7.45;55.58
74921;BME280;63483;47.384;8.860;2022-09-30T00:41:30;93634.44;;;7.48;55.81
74921;BME280;63483;47.384;8.860;2022-09-30T00:43:55;93633.63;;;7.48;55.79
74921;BME280;63483;47.384;8.860;2022-09-30T00:46:38;93642.88;;;7.50;55.69
74921;BME280;63483;47.384;8.860;2022-09-30T00:49:09;93636.66;;;7.51;55.46
74921;BME280;63483;47.384;8.860;2022-09-30T00:51:41;93641.69;;;7.53;55.45
74921;BME280;63483;47.384;8.860;2022-09-30T00:54:18;93653.56;;;7.55;55.57
74921;BME280;63483;47.384;8.860;2022-09-30T00:56:50;93648.34;;;7.55;55.42
74921;BME280;63483;47.384;8.860;2022-09-30T00:59:38;93650.94;;;7.55;55.69
74921;BME280;63483;47.384;8.860;2022-09-30T01:02:06;93653.56;;;7.55;55.26
74921;BME280;63483;47.384;8.860;2022-09-30T01:04:33;93647.34;;;7.56;55.13
74921;BME280;63483;47.384;8.860;2022-09-30T01:07:05;93651.75;;;7.56;55.36
74921;BME280;63483;47.384;8.860;2022-09-30T01:09:32;93645.75;;;7.55;55.52
74921;BME280;63483;47.384;8.860;2022-09-30T01:11:59;93654.53;;;7.54;55.29
74921;BME280;63483;47.384;8.860;2022-09-30T01:14:26;93655.16;;;7.56;55.03
74921;BME280;63483;47.384;8.860;2022-09-30T01:31:16;93651.69;;;7.49;55.53
74921;BME280;63483;47.384;8.860;2022-09-30T01:34:38;93651.31;;;7.52;55.45
74921;BME280;63483;47.384;8.860;2022-09-30T01:37:32;93652.31;;;7.51;55.65
74921;BME280;63483;47.384;8.860;2022-09-30T01:40:06;93656.53;;;7.52;55.31
74921;BME280;63483;47.384;8.860;2022-09-30T01:45:12;93647.34;;;7.56;55.34
74921;BME280;63483;47.384;8.860;2022-09-30T01:48:02;93655.78;;;7.58;55.47
74921;BME280;63483;47.384;8.860;2022-09-30T01:50:42;93650.56;;;7.58;55.24
74921;BME280;63483;47.384;8.860;2022-09-30T01:53:18;93652.09;;;6.80;49.28
74921;BME280;63483;47.384;8.860;2022-09-30T01:56:10;93636.31;;;5.75;48.40
74921;BME280;63483;47.384;8.860;2022-09-30T01:58:46;93644.88;;;5.06;49.80
74921;BME280;63483;47.384;8.860;2022-09-30T02:01:21;93644.53;;;4.62;50.72
74921;BME280;63483;47.384;8.860;2022-09-30T02:03:55;93648.69;;;4.23;51.11
74921;BME280;63483;47.384;8.860;2022-09-30T02:06:29;93652.97;;;3.91;51.94
74921;BME280;63483;47.384;8.860;2022-09-30T02:09:01;93656.50;;;3.65;51.84
74921;BME280;63483;47.384;8.860;2022-09-30T02:11:32;93654.22;;;3.37;52.24
74921;BME280;63483;47.384;8.860;2022-09-30T02:14:18;93649.81;;;3.22;52.56
74921;BME280;63483;47.384;8.860;2022-09-30T02:16:51;93650.41;;;3.15;52.46
74921;BME280;63483;47.384;8.860;2022-09-30T02:19:21;93658.66;;;3.11;52.38
74921;BME280;63483;47.384;8.860;2022-09-30T02:22:06;93658.81;;;3.01;51.73
74921;BME280;63483;47.384;8.860;2022-09-30T02:24:34;93659.56;;;2.85;51.43
74921;BME280;63483;47.384;8.860;2022-09-30T02:27:05;93660.84;;;2.81;54.35
74921;BME280;63483;47.384;8.860;2022-09-30T02:29:35;93663.28;;;3.33;62.98
74921;BME280;63483;47.384;8.860;2022-09-30T02:32:26;93663.81;;;3.02;58.89
74921;BME280;63483;47.384;8.860;2022-09-30T02:35:19;93660.03;;;2.89;57.77
74921;BME280;63483;47.384;8.860;2022-09-30T02:37:51;93666.97;;;2.80;58.01
74921;BME280;63483;47.384;8.860;2022-09-30T02:40:28;93667.22;;;2.60;57.14
74921;BME280;63483;47.384;8.860;2022-09-30T02:42:56;93672.69;;;2.57;56.77
74921;BME280;63483;47.384;8.860;2022-09-30T02:45:23;93670.56;;;2.53;56.35
74921;BME280;63483;47.384;8.860;2022-09-30T02:50:30;93668.94;;;2.52;56.44
74921;BME280;63483;47.384;8.860;2022-09-30T02:53:08;93676.84;;;2.50;56.13
74921;BME280;63483;47.384;8.860;2022-09-30T02:58:24;93670.38;;;2.46;54.35
74921;BME280;63483;47.384;8.860;2022-09-30T03:00:51;93670.56;;;2.53;56.60
74921;BME280;63483;47.384;8.860;2022-09-30T03:03:20;93679.94;;;3.39;59.81
74921;BME280;63483;47.384;8.860;2022-09-30T03:05:49;93684.84;;;4.00;59.17
74921;BME280;63483;47.384;8.860;2022-09-30T03:08:15;93685.63;;;4.41;57.56
74921;BME280;63483;47.384;8.860;2022-09-30T03:10:41;93689.41;;;4.78;57.83
74921;BME280;63483;47.384;8.860;2022-09-30T03:21:42;93687.31;;;5.76;59.10
74921;BME280;63483;47.384;8.860;2022-09-30T03:24:17;93688.81;;;5.94;58.36
74921;BME280;63483;47.384;8.860;2022-09-30T03:29:44;93691.84;;;6.21;58.84
74921;BME280;63483;47.384;8.860;2022-09-30T03:35:03;93700.16;;;6.39;58.00
74921;BME280;63483;47.384;8.860;2022-09-30T03:37:42;93703.31;;;6.49;58.04
74921;BME280;63483;47.384;8.860;2022-09-30T03:43:30;93706.72;;;6.65;58.27
74921;BME280;63483;47.384;8.860;2022-09-30T03:46:17;93704.22;;;6.72;58.07
74921;BME280;63483;47.384;8.860;2022-09-30T03:48:47;93704.34;;;6.78;57.39
74921;BME280;63483;47.384;8.860;2022-09-30T03:51:15;93709.78;;;6.83;57.13
74921;BME280;63483;47.384;8.860;2022-09-30T03:53:42;93710.03;;;6.88;57.12
74921;BME280;63483;47.384;8.860;2022-09-30T03:56:08;93713.91;;;6.93;56.90
74921;BME280;63483;47.384;8.860;2022-09-30T03:58:33;93713.56;;;6.96;57.10
74921;BME280;63483;47.384;8.860;2022-09-30T04:00:59;93718.41;;;6.99;56.96
74921;BME280;63483;47.384;8.860;2022-09-30T04:03:25;93718.06;;;7.02;56.69
74921;BME280;63483;47.384;8.860;2022-09-30T04:05:52;93718.69;;;7.04;57.17
74921;BME280;63483;47.384;8.860;2022-09-30T04:08:17;93706.09;;;7.08;56.74
74921;BME280;63483;47.384;8.860;2022-09-30T04:10:43;93706.75;;;7.10;56.64
74921;BME280;63483;47.384;8.860;2022-09-30T04:13:09;93715.00;;;7.13;56.63
74921;BME280;63483;47.384;8.860;2022-09-30T04:15:35;93710.59;;;7.14;56.61
74921;BME280;63483;47.384;8.860;2022-09-30T04:18:01;93714.63;;;7.16;56.70
74921;BME280;63483;47.384;8.860;2022-09-30T04:20:28;93714.44;;;7.18;56.26
74921;BME280;63483;47.384;8.860;2022-09-30T04:22:56;93716.84;;;7.19;56.72
74921;BME280;63483;47.384;8.860;2022-09-30T04:25:21;93715.09;;;7.20;56.73
74921;BME280;63483;47.384;8.860;2022-09-30T04:27:46;93724.31;;;7.22;56.45
74921;BME280;63483;47.384;8.860;2022-09-30T04:30:12;93715.50;;;7.23;56.57
74921;BME280;63483;47.384;8.860;2022-09-30T04:32:41;93719.56;;;7.26;56.66
74921;BME280;63483;47.384;8.860;2022-09-30T04:35:08;93720.34;;;7.27;56.42
74921;BME280;63483;47.384;8.860;2022-09-30T04:37:34;93718.41;;;7.29;56.42
74921;BME280;63483;47.384;8.860;2022-09-30T04:39:59;93721.97;;;7.28;56.32
74921;BME280;63483;47.384;8.860;2022-09-30T04:42:25;93723.44;;;7.30;56.45
74921;BME280;63483;47.384;8.860;2022-09-30T04:44:51;93729.44;;;7.31;56.36
74921;BME280;63483;47.384;8.860;2022-09-30T04:47:16;93730.41;;;7.30;56.43
74921;BME280;63483;47.384;8.860;2022-09-30T04:49:41;93728.81;;;7.29;56.17
74921;BME280;63483;47.384;8.860;2022-09-30T04:52:07;93740.66;;;7.31;56.12
74921;BME280;63483;47.384;8.860;2022-09-30T04:54:32;93739.66;;;7.32;56.11
74921;BME280;63483;47.384;8.860;2022-09-30T04:56:57;93739.66;;;7.32;56.35
74921;BME280;63483;47.384;8.860;2022-09-30T04:59:23;93737.84;;;7.33;56.28
74921;BME280;63483;47.384;8.860;2022-09-30T05:01:48;93737.84;;;7.33;56.14
74921;BME280;63483;47.384;8.860;2022-09-30T05:04:13;93748.09;;;7.34;56.08
74921;BME280;63483;47.384;8.860;2022-09-30T05:06:40;93752.50;;;7.34;56.54
74921;BME280;63483;47.384;8.860;2022-09-30T05:09:05;93761.75;;;7.36;56.29
74921;BME280;63483;47.384;8.860;2022-09-30T05:11:31;93754.75;;;7.37;56.41
74921;BME280;63483;47.384;8.860;2022-09-30T05:13:56;93758.19;;;7.37;56.37
74921;BME280;63483;47.384;8.860;2022-09-30T05:16:22;93759.78;;;7.38;55.99
74921;BME280;63483;47.384;8.860;2022-09-30T05:18:47;93761.41;;;7.39;56.02
74921;BME280;63483;47.384;8.860;2022-09-30T05:21:16;93765.81;;;7.39;56.13
74921;BME280;63483;47.384;8.860;2022-09-30T05:23:42;93764.97;;;7.38;56.27
74921;BME280;63483;47.384;8.860;2022-09-30T05:26:07;93770.19;;;7.38;56.72
74921;BME280;63483;47.384;8.860;2022-09-30T05:28:32;93764.19;;;7.38;56.14
74921;BME280;63483;47.384;8.860;2022-09-30T05:31:01;93778.47;;;7.42;56.04
74921;BME280;63483;47.384;8.860;2022-09-30T05:33:28;93781.88;;;7.43;56.27
74921;BME280;63483;47.384;8.860;2022-09-30T05:35:54;93769.66;;;7.43;56.09
74921;BME280;63483;47.384;8.860;2022-09-30T05:38:22;93785.28;;;7.43;56.25
74921;BME280;63483;47.384;8.860;2022-09-30T05:40:47;93786.28;;;7.42;56.15
74921;BME280;63483;47.384;8.860;2022-09-30T05:43:13;93783.69;;;7.42;56.39
74921;BME280;63483;47.384;8.860;2022-09-30T05:45:38;93793.09;;;7.43;56.16
74921;BME280;63483;47.384;8.860;2022-09-30T05:48:04;93794.53;;;7.46;56.11
74921;BME280;63483;47.384;8.860;2022-09-30T05:50:31;93803.16;;;7.46;56.33
74921;BME280;63483;47.384;8.860;2022-09-30T05:52:56;93796.97;;;7.47;56.29
74921;BME280;63483;47.384;8.860;2022-09-30T05:55:21;93801.19;;;7.48;56.15
74921;BME280;63483;47.384;8.860;2022-09-30T05:57:48;93806.66;;;7.53;56.33
74921;BME280;63483;47.384;8.860;2022-09-30T06:00:14;93808.91;;;7.56;56.35
74921;BME280;63483;47.384;8.860;2022-09-30T06:02:40;93810.53;;;7.57;56.15
74921;BME280;63483;47.384;8.860;2022-09-30T06:05:10;93812.16;;;7.58;56.13
74921;BME280;63483;47.384;8.860;2022-09-30T06:07:36;93818.94;;;7.59;56.36
74921;BME280;63483;47.384;8.860;2022-09-30T06:10:04;93819.78;;;7.60;56.05
74921;BME280;63483;47.384;8.860;2022-09-30T06:12:29;93822.38;;;7.60;56.33
74921;BME280;63483;47.384;8.860;2022-09-30T06:14:55;93822.38;;;7.60;56.26
74921;BME280;63483;47.384;8.860;2022-09-30T06:17:21;93825.47;;;7.64;56.24
74921;BME280;63483;47.384;8.860;2022-09-30T06:19:47;93827.88;;;7.65;56.21
74921;BME280;63483;47.384;8.860;2022-09-30T06:22:14;93828.53;;;7.67;56.46
74921;BME280;63483;47.384;8.860;2022-09-30T06:24:40;93833.56;;;7.69;56.17
74921;BME280;63483;47.384;8.860;2022-09-30T06:27:05;93831.56;;;7.71;56.12
74921;BME280;63483;47.384;8.860;2022-09-30T06:29:31;93835.63;;;7.73;56.21
74921;BME280;63483;47.384;8.860;2022-09-30T06:31:56;93834.44;;;7.76;56.33
74921;BME280;63483;47.384;8.860;2022-09-30T06:34:21;93839.66;;;7.76;56.11
74921;BME280;63483;47.384;8.860;2022-09-30T06:36:47;93845.09;;;6.92;49.78
74921;BME280;63483;47.384;8.860;2022-09-30T06:39:13;93836.88;;;6.10;49.85
74921;BME280;63483;47.384;8.860;2022-09-30T06:41:38;93839.09;;;5.51;50.42
74921;BME280;63483;47.384;8.860;2022-09-30T06:44:08;93844.91;;;4.97;51.70
74921;BME280;63483;47.384;8.860;2022-09-30T06:46:34;93852.53;;;4.57;51.70
74921;BME280;63483;47.384;8.860;2022-09-30T06:49:00;93857.38;;;4.27;52.90
74921;BME280;63483;47.384;8.860;2022-09-30T06:51:25;93851.03;;;4.05;53.06
74921;BME280;63483;47.384;8.860;2022-09-30T06:53:51;93852.09;;;3.86;53.83
74921;BME280;63483;47.384;8.860;2022-09-30T06:56:17;93858.19;;;3.68;54.44
74921;BME280;63483;47.384;8.860;2022-09-30T06:58:44;93861.09;;;3.57;54.40
74921;BME280;63483;47.384;8.860;2022-09-30T07:01:10;93852.16;;;3.51;54.82
74921;BME280;63483;47.384;8.860;2022-09-30T07:03:40;93854.22;;;3.48;54.71
74921;BME280;63483;47.384;8.860;2022-09-30T07:06:06;93855.00;;;3.40;54.13
74921;BME280;63483;47.384;8.860;2022-09-30T07:08:33;93857.72;;;3.65;56.46
74921;BME280;63483;47.384;8.860;2022-09-30T07:11:05;93852.25;;;3.84;65.39
74921;BME280;63483;47.384;8.860;2022-09-30T07:13:42;93849.56;;;3.51;58.76
74921;BME280;63483;47.384;8.860;2022-09-30T07:16:09;93846.34;;;3.31;57.58
74921;BME280;63483;47.384;8.860;2022-09-30T07:18:36;93848.09;;;3.23;57.81
74921;BME280;63483;47.384;8.860;2022-09-30T07:21:03;93852.16;;;3.25;58.36
74921;BME280;63483;47.384;8.860;2022-09-30T07:23:28;93842.91;;;3.49;58.98
74921;BME280;63483;47.384;8.860;2022-09-30T07:25:59;93843.13;;;3.29;57.19
74921;BME280;63483;47.384;8.860;2022-09-30T07:28:28;93848.28;;;3.56;58.99
74921;BME280;63483;47.384;8.860;2022-09-30T07:30:57;93852.81;;;4.04;60.02
74921;BME280;63483;47.384;8.860;2022-09-30T07:33:25;93854.91;;;4.17;57.67
74921;BME280;63483;47.384;8.860;2022-09-30T07:35:55;93865.50;;;4.82;60.12
74921;BME280;63483;47.384;8.860;2022-09-30T07:38:22;93864.97;;;5.27;59.28
74921;BME280;63483;47.384;8.860;2022-09-30T07:41:09;93858.66;;;5.70;60.06
74921;BME280;63483;47.384;8.860;2022-09-30T07:43:36;93865.84;;;5.99;59.37
74921;BME280;63483;47.384;8.860;2022-09-30T07:46:13;93860.50;;;6.24;60.05
74921;BME280;63483;47.384;8.860;2022-09-30T07:48:40;93871.03;;;6.39;60.00
74921;BME280;63483;47.384;8.860;2022-09-30T07:51:41;93873.16;;;6.58;58.78
74921;BME280;63483;47.384;8.860;2022-09-30T07:54:14;93887.66;;;6.76;58.55
74921;BME280;63483;47.384;8.860;2022-09-30T07:56:41;93886.44;;;6.86;58.78
74921;BME280;63483;47.384;8.860;2022-09-30T07:59:09;93888.63;;;6.98;58.12
74921;BME280;63483;47.384;8.860;2022-09-30T08:01:34;93894.41;;;7.08;57.61
74921;BME280;63483;47.384;8.860;2022-09-30T08:04:02;93904.09;;;7.14;57.37
74921;BME280;63483;47.384;8.860;2022-09-30T08:06:30;93909.66;;;7.11;57.57
74921;BME280;63483;47.384;8.860;2022-09-30T08:08:56;93899.81;;;7.21;56.86
74921;BME280;63483;47.384;8.860;2022-09-30T08:11:22;93902.31;;;7.30;56.82
74921;BME280;63483;47.384;8.860;2022-09-30T08:13:52;93896.41;;;7.36;56.98
74921;BME280;63483;47.384;8.860;2022-09-30T08:16:19;93903.06;;;7.38;57.13
74921;BME280;63483;47.384;8.860;2022-09-30T08:18:45;93908.81;;;7.34;56.73
74921;BME280;63483;47.384;8.860;2022-09-30T08:21:11;93907.91;;;7.27;57.17
74921;BME280;63483;47.384;8.860;2022-09-30T08:23:36;93913.47;;;7.23;56.66
74921;BME280;63483;47.384;8.860;2022-09-30T08:26:07;93916.75;;;7.55;56.34
74921;BME280;63483;47.384;8.860;2022-09-30T08:28:34;93932.88;;;7.36;57.00
74921;BME280;63483;47.384;8.860;2022-09-30T08:31:21;93925.72;;;7.38;56.52
74921;BME280;63483;47.384;8.860;2022-09-30T08:33:47;93924.72;;;7.39;56.12
74921;BME280;63483;47.384;8.860;2022-09-30T08:36:15;93928.22;;;7.46;56.28
74921;BME280;63483;47.384;8.860;2022-09-30T08:38:41;93939.50;;;7.23;56.82
74921;BME280;63483;47.384;8.860;2022-09-30T08:47:02;93943.22;;;7.44;56.80
74921;BME280;63483;47.384;8.860;2022-09-30T08:52:44;93940.38;;;7.54;56.64
74921;BME280;63483;47.384;8.860;2022-09-30T08:55:19;93947.94;;;7.64;56.66
74921;BME280;63483;47.384;8.860;2022-09-30T08:57:45;93949.94;;;7.77;55.90
74921;BME280;63483;47.384;8.860;2022-09-30T09:00:13;93958.66;;;7.84;55.42
74921;BME280;63483;47.384;8.860;2022-09-30T09:02:54;93965.66;;;7.83;55.70
74921;BME280;63483;47.384;8.860;2022-09-30T09:08:27;93964.97;;;7.89;55.97
74921;BME280;63483;47.384;8.860;2022-09-30T09:18:43;93984.94;;;8.12;55.22
74921;BME280;63483;47.384;8.860;2022-09-30T09:23:44;93984.28;;;7.95;55.57
74921;BME280;63483;47.384;8.860;2022-09-30T09:26:12;93985.47;;;7.92;55.83
74921;BME280;63483;47.384;8.860;2022-09-30T09:31:58;93994.03;;;8.01;55.52
74921;BME280;63483;47.384;8.860;2022-09-30T09:34:26;94002.34;;;7.97;55.36
74921;BME280;63483;47.384;8.860;2022-09-30T09:44:55;94005.59;;;8.14;54.59
74921;BME280;63483;47.384;8.860;2022-09-30T09:47:24;94000.94;;;8.09;54.58
74921;BME280;63483;47.384;8.860;2022-09-30T09:49:56;94004.81;;;8.13;54.67
74921;BME280;63483;47.384;8.860;2022-09-30T09:52:48;94013.19;;;8.23;54.74
74921;BME280;63483;47.384;8.860;2022-09-30T09:55:21;94013.19;;;8.23;55.18
74921;BME280;63483;47.384;8.860;2022-09-30T09:57:46;94006.50;;;8.36;54.78
74921;BME280;63483;47.384;8.860;2022-09-30T10:00:24;94009.00;;;8.44;55.96
74921;BME280;63483;47.384;8.860;2022-09-30T10:06:05;94019.09;;;8.47;53.21
74921;BME280;63483;47.384;8.860;2022-09-30T10:08:33;94022.22;;;8.57;53.73
74921;BME280;63483;47.384;8.860;2022-09-30T10:11:16;94026.44;;;8.58;53.39
74921;BME280;63483;47.384;8.860;2022-09-30T10:13:43;94022.91;;;8.66;53.71
74921;BME280;63483;47.384;8.860;2022-09-30T10:16:35;94026.72;;;8.63;53.34
74921;BME280;63483;47.384;8.860;2022-09-30T10:19:03;94021.56;;;8.85;53.52
74921;BME280;63483;47.384;8.860;2022-09-30T10:21:30;94026.03;;;8.91;53.42
74921;BME280;63483;47.384;8.860;2022-09-30T10:23:56;94030.19;;;9.01;52.53
74921;BME280;63483;47.384;8.860;2022-09-30T10:26:23;94037.88;;;9.09;51.90
74921;BME280;63483;47.384;8.860;2022-09-30T10:28:51;94035.53;;;9.14;51.63
74921;BME280;63483;47.384;8.860;2022-09-30T10:31:36;94034.03;;;9.26;51.04
74921;BME280;63483;47.384;8.860;2022-09-30T10:36:38;94036.47;;;9.28;50.68
74921;BME280;63483;47.384;8.860;2022-09-30T10:42:21;94041.50;;;9.08;50.84
74921;BME280;63483;47.384;8.860;2022-09-30T10:44:52;94039.13;;;9.13;50.93
74921;BME280;63483;47.384;8.860;2022-09-30T10:47:21;94036.56;;;8.98;50.86
74921;BME280;63483;47.384;8.860;2022-09-30T10:49:50;94040.03;;;8.84;50.70
74921;BME280;63483;47.384;8.860;2022-09-30T10:52:19;94052.06;;;9.00;51.22
74921;BME280;63483;47.384;8.860;2022-09-30T10:54:51;94059.97;;;9.06;51.15
74921;BME280;63483;47.384;8.860;2022-09-30T10:57:28;94054.81;;;9.13;50.58
74921;BME280;63483;47.384;8.860;2022-09-30T11:00:02;94049.53;;;9.06;50.38
74921;BME280;63483;47.384;8.860;2022-09-30T11:02:35;94055.38;;;9.08;50.77
74921;BME280;63483;47.384;8.860;2022-09-30T11:05:17;94049.06;;;9.03;50.44
74921;BME280;63483;47.384;8.860;2022-09-30T11:07:58;94058.16;;;9.07;50.46
74921;BME280;63483;47.384;8.860;2022-09-30T11:13:21;94058.53;;;9.04;49.27
74921;BME280;63483;47.384;8.860;2022-09-30T11:16:41;94058.88;;;9.15;50.43
74921;BME280;63483;47.384;8.860;2022-09-30T11:19:29;94053.19;;;9.12;50.02
74921;BME280;63483;47.384;8.860;2022-09-30T11:24:41;94054.81;;;9.13;49.58
74921;BME280;63483;47.384;8.860;2022-09-30T11:30:20;94061.84;;;9.12;49.39
74921;BME280;63483;47.384;8.860;2022-09-30T11:44:02;94086.44;;;9.40;48.12
74921;BME280;63483;47.384;8.860;2022-09-30T11:46:49;94086.94;;;9.50;48.58
74921;BME280;63483;47.384;8.860;2022-09-30T11:49:37;94086.31;;;9.48;48.39
74921;BME280;63483;47.384;8.860;2022-09-30T11:58:08;94093.03;;;9.57;49.21
74921;BME280;63483;47.384;8.860;2022-09-30T12:00:41;94092.44;;;9.55;48.59
74921;BME280;63483;47.384;8.860;2022-09-30T12:03:36;94089.25;;;9.60;49.32
74921;BME280;63483;47.384;8.860;2022-09-30T12:06:10;94087.91;;;9.49;49.22
74921;BME280;63483;47.384;8.860;2022-09-30T12:08:50;94086.94;;;9.50;48.68
74921;BME280;63483;47.384;8.860;2022-09-30T12:11:21;94076.97;;;9.60;48.53
74921;BME280;63483;47.384;8.860;2022-09-30T12:13:56;94075.13;;;9.54;48.78
74921;BME280;63483;47.384;8.860;2022-09-30T12:16:27;94083.00;;;9.61;47.71
74921;BME280;63483;47.384;8.860;2022-09-30T12:19:13;94077.34;;;9.57;48.02
74921;BME280;63483;47.384;8.860;2022-09-30T12:21:49;94077.06;;;9.67;47.82
74921;BME280;63483;47.384;8.860;2022-09-30T12:24:24;94077.47;;;9.71;47.50
74921;BME280;63483;47.384;8.860;2022-09-30T12:26:53;94075.09;;;9.76;48.14
74921;BME280;63483;47.384;8.860;2022-09-30T12:35:34;94083.56;;;9.78;47.80
74921;BME280;63483;47.384;8.860;2022-09-30T12:48:45;94090.75;;;9.91;47.99
74921;BME280;63483;47.384;8.860;2022-09-30T12:51:29;94089.16;;;9.96;49.32
74921;BME280;63483;47.384;8.860;2022-09-30T12:53:59;94089.41;;;10.01;50.60
74921;BME280;63483;47.384;8.860;2022-09-30T12:56:29;94087.84;;;10.07;50.70
74921;BME280;63483;47.384;8.860;2022-09-30T12:58:56;94081.41;;;10.10;49.55
74921;BME280;63483;47.384;8.860;2022-09-30T13:06:24;94085.06;;;10.09;49.08
74921;BME280;63483;47.384;8.860;2022-09-30T13:11:32;94084.13;;;9.95;48.08
74921;BME280;63483;47.384;8.860;2022-09-30T13:16:58;94087.41;;;10.03;48.51
74921;BME280;63483;47.384;8.860;2022-09-30T13:19:36;94090.75;;;9.91;48.14
74921;BME280;63483;47.384;8.860;2022-09-30T13:22:42;94086.00;;;9.79;49.18
74921;BME280;63483;47.384;8.860;2022-09-30T13:25:13;94084.31;;;9.72;48.78
74921;BME280;63483;47.384;8.860;2022-09-30T13:32:44;94094.06;;;9.84;49.07
74921;BME280;63483;47.384;8.860;2022-09-30T13:40:49;94088.78;;;9.99;49.87
74921;BME280;63483;47.384;8.860;2022-09-30T13:43:29;94088.84;;;10.06;49.59
74921;BME280;63483;47.384;8.860;2022-09-30T13:45:57;94094.00;;;9.99;49.38
74921;BME280;63483;47.384;8.860;2022-09-30T13:48:34;94089.16;;;9.96;49.39
74921;BME280;63483;47.384;8.860;2022-09-30T13:51:06;94095.41;;;9.95;49.54
74921;BME280;63483;47.384;8.860;2022-09-30T13:53:45;94092.66;;;10.03;49.63
74921;BME280;63483;47.384;8.860;2022-09-30T13:56:21;94089.66;;;10.07;50.11
74921;BME280;63483;47.384;8.860;2022-09-30T13:59:29;94092.72;;;10.10;48.86
74921;BME280;63483;47.384;8.860;2022-09-30T14:18:52;94099.88;;;10.01;49.16
74921;BME280;63483;47.384;8.860;2022-09-30T14:21:34;94091.03;;;10.02;49.33
74921;BME280;63483;47.384;8.860;2022-09-30T14:24:08;94092.25;;;10.07;49.50
74921;BME280;63483;47.384;8.860;2022-09-30T14:30:19;94103.22;;;10.17;49.53
74921;BME280;63483;47.384;8.860;2022-09-30T14:32:26;94108.88;;;10.20;48.84
74921;BME280;63483;47.384;8.860;2022-09-30T14:34:53;94111.31;;;10.22;48.97
74921;BME280;63483;47.384;8.860;2022-09-30T14:37:26;94112.56;;;10.26;48.99
74921;BME280;63483;47.384;8.860;2022-09-30T14:39:53;94110.69;;;10.20;48.94
74921;BME280;63483;47.384;8.860;2022-09-30T14:42:31;94110.47;;;10.21;48.59
74921;BME280;63483;47.384;8.860;2022-09-30T14:45:01;94112.91;;;10.23;50.09
74921;BME280;63483;47.384;8.860;2022-09-30T14:47:38;94116.97;;;10.26;49.23
74921;BME280;63483;47.384;8.860;2022-09-30T14:50:13;94131.47;;;10.28;49.56
74921;BME280;63483;47.384;8.860;2022-09-30T14:52:42;94130.50;;;10.29;50.22
74921;BME280;63483;47.384;8.860;2022-09-30T14:55:19;94133.09;;;10.29;50.49
74921;BME280;63483;47.384;8.860;2022-09-30T14:57:47;94139.94;;;10.30;50.52
74921;BME280;63483;47.384;8.860;2022-09-30T15:00:29;94138.94;;;10.31;50.44
74921;BME280;63483;47.384;8.860;2022-09-30T15:02:55;94135.94;;;10.34;50.26
74921;BME280;63483;47.384;8.860;2022-09-30T15:05:21;94140.00;;;10.37;50.27
74921;BME280;63483;47.384;8.860;2022-09-30T15:07:46;94138.56;;;10.34;49.62
74921;BME280;63483;47.384;8.860;2022-09-30T15:10:20;94147.41;;;10.33;49.04
74921;BME280;63483;47.384;8.860;2022-09-30T15:12:48;94145.75;;;10.26;49.26
74921;BME280;63483;47.384;8.860;2022-09-30T15:15:46;94142.34;;;10.25;49.79
74921;BME280;63483;47.384;8.860;2022-09-30T15:20:58;94150.56;;;10.22;50.09
74921;BME280;63483;47.384;8.860;2022-09-30T15:23:31;94150.78;;;10.27;49.92
74921;BME280;63483;47.384;8.860;2022-09-30T15:25:57;94156.09;;;10.34;50.44
74921;BME280;63483;47.384;8.860;2022-09-30T15:28:23;94145.19;;;10.30;49.16
74921;BME280;63483;47.384;8.860;2022-09-30T15:30:50;94162.50;;;10.31;49.79
74921;BME280;63483;47.384;8.860;2022-09-30T15:33:20;94151.66;;;10.34;49.75
74921;BME280;63483;47.384;8.860;2022-09-30T15:35:47;94156.50;;;10.37;49.72
74921;BME280;63483;47.384;8.860;2022-09-30T15:40:46;94171.44;;;10.44;50.35
74921;BME280;63483;47.384;8.860;2022-09-30T15:43:44;94171.44;;;10.44;50.72
74921;BME280;63483;47.384;8.860;2022-09-30T15:46:29;94165.59;;;10.42;50.03
74921;BME280;63483;47.384;8.860;2022-09-30T15:49:03;94163.78;;;10.42;48.85
74921;BME280;63483;47.384;8.860;2022-09-30T15:53:59;94180.31;;;10.43;50.07
74921;BME280;63483;47.384;8.860;2022-09-30T15:56:35;94185.56;;;10.43;50.06
74921;BME280;63483;47.384;8.860;2022-09-30T15:59:09;94173.09;;;10.45;50.44
74921;BME280;63483;47.384;8.860;2022-09-30T16:01:47;94176.69;;;10.44;50.55
74921;BME280;63483;47.384;8.860;2022-09-30T16:09:17;94178.69;;;10.42;51.51
74921;BME280;63483;47.384;8.860;2022-09-30T16:11:56;94184.31;;;10.38;51.49
74921;BME280;63483;47.384;8.860;2022-09-30T16:14:26;94188.75;;;10.38;51.53
74921;BME280;63483;47.384;8.860;2022-09-30T16:16:57;94187.94;;;10.37;51.70
74921;BME280;63483;47.384;8.860;2022-09-30T16:19:24;94192.34;;;10.37;51.64
74921;BME280;63483;47.384;8.860;2022-09-30T16:21:51;94184.69;;;10.35;51.75
74921;BME280;63483;47.384;8.860;2022-09-30T16:26:58;94188.31;;;10.34;51.51
74921;BME280;63483;47.384;8.860;2022-09-30T16:29:25;94197.16;;;10.33;51.67
74921;BME280;63483;47.384;8.860;2022-09-30T16:31:53;94195.56;;;10.32;51.55
74921;BME280;63483;47.384;8.860;2022-09-30T16:34:24;94193.13;;;10.31;51.69